sensor_id;sensor_type;location;lat;lon;timestamp;P1;durP1;ratioP1;P2;durP2;ratioP2
11924;SDS011;6022;48.768;18.608;2024-03-23T00:53:08;0.23;;;0.23;;
11924;SDS011;6022;48.768;18.608;2024-03-23T00:55:37;0.50;;;0.50;;
11924;SDS011;6022;48.768;18.608;2024-03-23T00:58:04;0.00;;;0.00;;
11924;SDS011;6022;48.768;18.608;2024-03-23T01:00:31;0.80;;;0.70;;
11924;SDS011;6022;48.768;18.608;2024-03-23T01:02:58;0.00;;;0.00;;
11924;SDS011;6022;48.768;18.608;2024-03-23T01:05:25;0.30;;;0.30;;
11924;SDS011;6022;48.768;18.608;2024-03-23T01:07:51;0.20;;;0.20;;
11924;SDS011;6022;48.768;18.608;2024-03-23T01:10:18;0.67;;;0.67;;
11924;SDS011;6022;48.768;18.608;2024-03-23T01:12:45;0.07;;;0.07;;
11924;SDS011;6022;48.768;18.608;2024-03-23T01:15:13;0.60;;;0.60;;
11924;SDS011;6022;48.768;18.608;2024-03-23T01:17:40;0.30;;;0.30;;
11924;SDS011;6022;48.768;18.608;2024-03-23T01:20:07;0.10;;;0.10;;
11924;SDS011;6022;48.768;18.608;2024-03-23T01:22:34;0.10;;;0.10;;
11924;SDS011;6022;48.768;18.608;2024-03-23T01:25:01;0.17;;;0.17;;
11924;SDS011;6022;48.768;18.608;2024-03-23T01:27:29;1.37;;;0.53;;
11924;SDS011;6022;48.768;18.608;2024-03-23T01:29:56;0.80;;;0.80;;
11924;SDS011;6022;48.768;18.608;2024-03-23T01:32:23;0.00;;;0.00;;
11924;SDS011;6022;48.768;18.608;2024-03-23T01:34:50;0.10;;;0.10;;
11924;SDS011;6022;48.768;18.608;2024-03-23T01:37:17;0.87;;;0.87;;
11924;SDS011;6022;48.768;18.608;2024-03-23T01:39:44;0.67;;;0.67;;
11924;SDS011;6022;48.768;18.608;2024-03-23T01:42:10;1.13;;;1.00;;
11924;SDS011;6022;48.768;18.608;2024-03-23T01:44:38;0.57;;;0.57;;
11924;SDS011;6022;48.768;18.608;2024-03-23T01:47:05;0.00;;;0.00;;
11924;SDS011;6022;48.768;18.608;2024-03-23T01:49:33;0.07;;;0.07;;
11924;SDS011;6022;48.768;18.608;2024-03-23T01:52:00;0.10;;;0.10;;
11924;SDS011;6022;48.768;18.608;2024-03-23T01:54:28;0.00;;;0.00;;
11924;SDS011;6022;48.768;18.608;2024-03-23T01:56:56;0.60;;;0.57;;
11924;SDS011;6022;48.768;18.608;2024-03-23T01:59:25;0.00;;;0.00;;
11924;SDS011;6022;48.768;18.608;2024-03-23T02:01:51;1.07;;;0.37;;
11924;SDS011;6022;48.768;18.608;2024-03-23T02:04:19;0.10;;;0.10;;
11924;SDS011;6022;48.768;18.608;2024-03-23T02:06:46;0.33;;;0.33;;
11924;SDS011;6022;48.768;18.608;2024-03-23T02:09:12;0.33;;;0.33;;
11924;SDS011;6022;48.768;18.608;2024-03-23T02:11:40;0.00;;;0.00;;
11924;SDS011;6022;48.768;18.608;2024-03-23T02:14:08;0.20;;;0.20;;
11924;SDS011;6022;48.768;18.608;2024-03-23T02:16:34;0.00;;;0.00;;
11924;SDS011;6022;48.768;18.608;2024-03-23T02:19:01;1.20;;;0.23;;
11924;SDS011;6022;48.768;18.608;2024-03-23T02:21:28;0.13;;;0.13;;
11924;SDS011;6022;48.768;18.608;2024-03-23T02:23:58;0.00;;;0.00;;
11924;SDS011;6022;48.768;18.608;2024-03-23T02:26:25;0.30;;;0.30;;
11924;SDS011;6022;48.768;18.608;2024-03-23T02:28:53;0.00;;;0.00;;
11924;SDS011;6022;48.768;18.608;2024-03-23T02:31:19;0.10;;;0.10;;
11924;SDS011;6022;48.768;18.608;2024-03-23T02:33:46;0.10;;;0.03;;
11924;SDS011;6022;48.768;18.608;2024-03-23T02:36:13;0.00;;;0.00;;
11924;SDS011;6022;48.768;18.608;2024-03-23T02:38:40;0.30;;;0.30;;
11924;SDS011;6022;48.768;18.608;2024-03-23T02:41:07;0.43;;;0.40;;
11924;SDS011;6022;48.768;18.608;2024-03-23T02:43:33;0.47;;;0.47;;
11924;SDS011;6022;48.768;18.608;2024-03-23T02:46:00;0.10;;;0.10;;
11924;SDS011;6022;48.768;18.608;2024-03-23T02:48:28;0.83;;;0.53;;
11924;SDS011;6022;48.768;18.608;2024-03-23T02:50:55;0.00;;;0.00;;
11924;SDS011;6022;48.768;18.608;2024-03-23T02:53:22;0.50;;;0.50;;
11924;SDS011;6022;48.768;18.608;2024-03-23T02:55:49;0.53;;;0.53;;
11924;SDS011;6022;48.768;18.608;2024-03-23T02:58:16;0.23;;;0.23;;
11924;SDS011;6022;48.768;18.608;2024-03-23T03:00:42;0.53;;;0.53;;
11924;SDS011;6022;48.768;18.608;2024-03-23T03:03:09;0.23;;;0.23;;
11924;SDS011;6022;48.768;18.608;2024-03-23T03:05:36;0.00;;;0.00;;
11924;SDS011;6022;48.768;18.608;2024-03-23T03:08:03;0.53;;;0.53;;
11924;SDS011;6022;48.768;18.608;2024-03-23T03:10:30;0.00;;;0.00;;
11924;SDS011;6022;48.768;18.608;2024-03-23T03:13:00;0.00;;;0.00;;
11924;SDS011;6022;48.768;18.608;2024-03-23T03:15:27;0.30;;;0.30;;
11924;SDS011;6022;48.768;18.608;2024-03-23T03:17:54;0.23;;;0.10;;
11924;SDS011;6022;48.768;18.608;2024-03-23T03:20:21;0.23;;;0.20;;
11924;SDS011;6022;48.768;18.608;2024-03-23T03:22:49;0.00;;;0.00;;
11924;SDS011;6022;48.768;18.608;2024-03-23T03:25:18;0.13;;;0.13;;
11924;SDS011;6022;48.768;18.608;2024-03-23T03:27:45;0.30;;;0.30;;
11924;SDS011;6022;48.768;18.608;2024-03-23T03:30:15;0.10;;;0.10;;
11924;SDS011;6022;48.768;18.608;2024-03-23T03:32:42;1.30;;;1.23;;
11924;SDS011;6022;48.768;18.608;2024-03-23T03:35:09;0.80;;;0.80;;
11924;SDS011;6022;48.768;18.608;2024-03-23T03:37:36;0.40;;;0.40;;
11924;SDS011;6022;48.768;18.608;2024-03-23T03:40:03;0.63;;;0.63;;
11924;SDS011;6022;48.768;18.608;2024-03-23T03:42:34;4.17;;;1.43;;
11924;SDS011;6022;48.768;18.608;2024-03-23T03:45:01;0.00;;;0.00;;
11924;SDS011;6022;48.768;18.608;2024-03-23T03:47:30;0.10;;;0.10;;
11924;SDS011;6022;48.768;18.608;2024-03-23T03:49:57;1.00;;;0.87;;
11924;SDS011;6022;48.768;18.608;2024-03-23T03:52:23;1.20;;;1.10;;
11924;SDS011;6022;48.768;18.608;2024-03-23T03:54:50;0.10;;;0.10;;
11924;SDS011;6022;48.768;18.608;2024-03-23T03:57:17;0.90;;;0.90;;
11924;SDS011;6022;48.768;18.608;2024-03-23T03:59:44;0.47;;;0.47;;
11924;SDS011;6022;48.768;18.608;2024-03-23T04:02:11;0.10;;;0.10;;
11924;SDS011;6022;48.768;18.608;2024-03-23T04:04:38;0.53;;;0.53;;
11924;SDS011;6022;48.768;18.608;2024-03-23T04:07:05;1.33;;;1.10;;
11924;SDS011;6022;48.768;18.608;2024-03-23T04:09:31;0.53;;;0.53;;
11924;SDS011;6022;48.768;18.608;2024-03-23T04:11:58;1.00;;;0.70;;
11924;SDS011;6022;48.768;18.608;2024-03-23T04:14:25;0.00;;;0.00;;
11924;SDS011;6022;48.768;18.608;2024-03-23T04:16:52;0.00;;;0.00;;
11924;SDS011;6022;48.768;18.608;2024-03-23T04:19:19;0.40;;;0.40;;
11924;SDS011;6022;48.768;18.608;2024-03-23T04:21:46;0.30;;;0.30;;
11924;SDS011;6022;48.768;18.608;2024-03-23T04:24:15;0.30;;;0.30;;
11924;SDS011;6022;48.768;18.608;2024-03-23T04:26:45;0.43;;;0.40;;
11924;SDS011;6022;48.768;18.608;2024-03-23T04:29:12;0.00;;;0.00;;
11924;SDS011;6022;48.768;18.608;2024-03-23T04:31:39;0.00;;;0.00;;
11924;SDS011;6022;48.768;18.608;2024-03-23T04:34:06;0.30;;;0.30;;
11924;SDS011;6022;48.768;18.608;2024-03-23T04:36:33;0.10;;;0.10;;
11924;SDS011;6022;48.768;18.608;2024-03-23T04:39:00;0.43;;;0.43;;
11924;SDS011;6022;48.768;18.608;2024-03-23T04:41:27;0.87;;;0.43;;
11924;SDS011;6022;48.768;18.608;2024-03-23T04:43:53;0.00;;;0.00;;
11924;SDS011;6022;48.768;18.608;2024-03-23T04:46:21;0.17;;;0.17;;
11924;SDS011;6022;48.768;18.608;2024-03-23T04:48:48;0.20;;;0.20;;
11924;SDS011;6022;48.768;18.608;2024-03-23T04:51:25;0.83;;;0.33;;
11924;SDS011;6022;48.768;18.608;2024-03-23T04:53:56;0.00;;;0.00;;
11924;SDS011;6022;48.768;18.608;2024-03-23T04:56:27;0.33;;;0.33;;
11924;SDS011;6022;48.768;18.608;2024-03-23T04:58:53;0.00;;;0.00;;
11924;SDS011;6022;48.768;18.608;2024-03-23T05:01:29;0.17;;;0.17;;
11924;SDS011;6022;48.768;18.608;2024-03-23T05:04:08;0.10;;;0.10;;
11924;SDS011;6022;48.768;18.608;2024-03-23T05:06:35;0.20;;;0.20;;
11924;SDS011;6022;48.768;18.608;2024-03-23T05:09:02;0.20;;;0.20;;
11924;SDS011;6022;48.768;18.608;2024-03-23T05:11:32;0.53;;;0.53;;
11924;SDS011;6022;48.768;18.608;2024-03-23T05:14:00;0.20;;;0.20;;
11924;SDS011;6022;48.768;18.608;2024-03-23T05:16:35;0.60;;;0.60;;
11924;SDS011;6022;48.768;18.608;2024-03-23T05:19:03;0.10;;;0.10;;
11924;SDS011;6022;48.768;18.608;2024-03-23T05:21:30;0.33;;;0.33;;
11924;SDS011;6022;48.768;18.608;2024-03-23T05:23:57;0.13;;;0.13;;
11924;SDS011;6022;48.768;18.608;2024-03-23T05:26:24;0.97;;;0.67;;
11924;SDS011;6022;48.768;18.608;2024-03-23T05:28:51;0.83;;;0.40;;
11924;SDS011;6022;48.768;18.608;2024-03-23T05:31:26;0.40;;;0.17;;
11924;SDS011;6022;48.768;18.608;2024-03-23T05:33:56;0.00;;;0.00;;
11924;SDS011;6022;48.768;18.608;2024-03-23T05:36:24;0.37;;;0.30;;
11924;SDS011;6022;48.768;18.608;2024-03-23T05:38:51;0.00;;;0.00;;
11924;SDS011;6022;48.768;18.608;2024-03-23T05:41:18;0.70;;;0.53;;
11924;SDS011;6022;48.768;18.608;2024-03-23T05:44:02;0.30;;;0.30;;
11924;SDS011;6022;48.768;18.608;2024-03-23T05:46:29;0.20;;;0.10;;
11924;SDS011;6022;48.768;18.608;2024-03-23T05:49:00;0.83;;;0.30;;
11924;SDS011;6022;48.768;18.608;2024-03-23T05:51:28;0.60;;;0.40;;
11924;SDS011;6022;48.768;18.608;2024-03-23T05:53:58;0.33;;;0.33;;
11924;SDS011;6022;48.768;18.608;2024-03-23T05:56:27;0.93;;;0.93;;
11924;SDS011;6022;48.768;18.608;2024-03-23T05:58:57;0.50;;;0.50;;
11924;SDS011;6022;48.768;18.608;2024-03-23T06:01:31;0.93;;;0.73;;
11924;SDS011;6022;48.768;18.608;2024-03-23T06:04:01;1.93;;;0.20;;
11924;SDS011;6022;48.768;18.608;2024-03-23T06:06:32;0.33;;;0.27;;
11924;SDS011;6022;48.768;18.608;2024-03-23T06:09:07;0.60;;;0.60;;
11924;SDS011;6022;48.768;18.608;2024-03-23T06:11:35;0.93;;;0.93;;
11924;SDS011;6022;48.768;18.608;2024-03-23T06:14:02;0.23;;;0.23;;
11924;SDS011;6022;48.768;18.608;2024-03-23T06:16:42;0.30;;;0.30;;
11924;SDS011;6022;48.768;18.608;2024-03-23T06:19:10;1.73;;;0.13;;
11924;SDS011;6022;48.768;18.608;2024-03-23T06:21:43;0.57;;;0.57;;
11924;SDS011;6022;48.768;18.608;2024-03-23T06:24:10;0.77;;;0.47;;
11924;SDS011;6022;48.768;18.608;2024-03-23T06:26:38;0.00;;;0.00;;
11924;SDS011;6022;48.768;18.608;2024-03-23T06:29:05;0.43;;;0.43;;
11924;SDS011;6022;48.768;18.608;2024-03-23T06:31:32;1.17;;;1.00;;
11924;SDS011;6022;48.768;18.608;2024-03-23T06:33:59;0.23;;;0.23;;
11924;SDS011;6022;48.768;18.608;2024-03-23T06:36:27;0.40;;;0.40;;
11924;SDS011;6022;48.768;18.608;2024-03-23T06:38:56;0.57;;;0.57;;
11924;SDS011;6022;48.768;18.608;2024-03-23T06:41:22;0.57;;;0.57;;
11924;SDS011;6022;48.768;18.608;2024-03-23T06:47:20;0.10;;;0.10;;
11924;SDS011;6022;48.768;18.608;2024-03-23T06:49:54;0.50;;;0.50;;
11924;SDS011;6022;48.768;18.608;2024-03-23T06:52:23;0.93;;;0.77;;
11924;SDS011;6022;48.768;18.608;2024-03-23T06:54:53;0.40;;;0.40;;
11924;SDS011;6022;48.768;18.608;2024-03-23T06:57:20;0.40;;;0.40;;
11924;SDS011;6022;48.768;18.608;2024-03-23T06:59:48;0.73;;;0.73;;
11924;SDS011;6022;48.768;18.608;2024-03-23T07:02:16;1.13;;;1.03;;
11924;SDS011;6022;48.768;18.608;2024-03-23T07:04:43;1.27;;;1.17;;
11924;SDS011;6022;48.768;18.608;2024-03-23T07:10:47;0.00;;;0.00;;
11924;SDS011;6022;48.768;18.608;2024-03-23T07:13:15;0.53;;;0.30;;
11924;SDS011;6022;48.768;18.608;2024-03-23T07:15:43;0.77;;;0.77;;
11924;SDS011;6022;48.768;18.608;2024-03-23T07:18:18;0.30;;;0.30;;
11924;SDS011;6022;48.768;18.608;2024-03-23T07:20:54;0.60;;;0.60;;
11924;SDS011;6022;48.768;18.608;2024-03-23T07:23:23;0.40;;;0.40;;
11924;SDS011;6022;48.768;18.608;2024-03-23T07:28:47;0.73;;;0.30;;
11924;SDS011;6022;48.768;18.608;2024-03-23T07:31:16;0.97;;;0.93;;
11924;SDS011;6022;48.768;18.608;2024-03-23T07:33:44;0.30;;;0.30;;
11924;SDS011;6022;48.768;18.608;2024-03-23T07:39:28;7.10;;;0.73;;
11924;SDS011;6022;48.768;18.608;2024-03-23T07:42:06;0.10;;;0.10;;
11924;SDS011;6022;48.768;18.608;2024-03-23T07:44:33;0.43;;;0.40;;
11924;SDS011;6022;48.768;18.608;2024-03-23T07:47:09;1.03;;;1.03;;
11924;SDS011;6022;48.768;18.608;2024-03-23T07:49:41;0.37;;;0.37;;
11924;SDS011;6022;48.768;18.608;2024-03-23T07:52:11;0.50;;;0.50;;
11924;SDS011;6022;48.768;18.608;2024-03-23T07:55:11;0.27;;;0.27;;
11924;SDS011;6022;48.768;18.608;2024-03-23T07:57:45;0.20;;;0.20;;
11924;SDS011;6022;48.768;18.608;2024-03-23T08:00:20;0.83;;;0.60;;
11924;SDS011;6022;48.768;18.608;2024-03-23T08:03:02;1.53;;;1.20;;
11924;SDS011;6022;48.768;18.608;2024-03-23T08:05:48;0.33;;;0.33;;
11924;SDS011;6022;48.768;18.608;2024-03-23T08:08:52;0.60;;;0.60;;
11924;SDS011;6022;48.768;18.608;2024-03-23T08:12:32;0.70;;;0.60;;
11924;SDS011;6022;48.768;18.608;2024-03-23T08:19:15;1.70;;;0.70;;
11924;SDS011;6022;48.768;18.608;2024-03-23T08:21:42;2.20;;;1.27;;
11924;SDS011;6022;48.768;18.608;2024-03-23T08:24:10;2.60;;;1.13;;
11924;SDS011;6022;48.768;18.608;2024-03-23T08:26:37;1.60;;;1.17;;
11924;SDS011;6022;48.768;18.608;2024-03-23T08:29:05;1.43;;;1.33;;
11924;SDS011;6022;48.768;18.608;2024-03-23T08:31:33;3.20;;;1.97;;
11924;SDS011;6022;48.768;18.608;2024-03-23T08:34:01;0.90;;;0.90;;
11924;SDS011;6022;48.768;18.608;2024-03-23T08:36:32;2.13;;;0.97;;
11924;SDS011;6022;48.768;18.608;2024-03-23T08:39:04;1.30;;;1.20;;
11924;SDS011;6022;48.768;18.608;2024-03-23T08:41:32;3.30;;;1.17;;
11924;SDS011;6022;48.768;18.608;2024-03-23T08:44:00;0.67;;;0.67;;
11924;SDS011;6022;48.768;18.608;2024-03-23T08:46:28;2.43;;;1.50;;
11924;SDS011;6022;48.768;18.608;2024-03-23T08:48:57;0.63;;;0.57;;
11924;SDS011;6022;48.768;18.608;2024-03-23T08:51:23;0.90;;;0.90;;
11924;SDS011;6022;48.768;18.608;2024-03-23T08:53:54;2.53;;;2.00;;
11924;SDS011;6022;48.768;18.608;2024-03-23T08:56:21;1.17;;;0.90;;
11924;SDS011;6022;48.768;18.608;2024-03-23T08:58:48;2.43;;;1.53;;
11924;SDS011;6022;48.768;18.608;2024-03-23T09:01:17;2.57;;;1.33;;
11924;SDS011;6022;48.768;18.608;2024-03-23T09:03:46;1.73;;;1.40;;
11924;SDS011;6022;48.768;18.608;2024-03-23T09:06:44;1.20;;;0.97;;
11924;SDS011;6022;48.768;18.608;2024-03-23T09:09:13;1.20;;;1.20;;
11924;SDS011;6022;48.768;18.608;2024-03-23T09:11:44;1.40;;;1.00;;
11924;SDS011;6022;48.768;18.608;2024-03-23T09:14:16;2.03;;;1.47;;
11924;SDS011;6022;48.768;18.608;2024-03-23T09:16:50;1.30;;;1.20;;
11924;SDS011;6022;48.768;18.608;2024-03-23T09:19:18;2.37;;;1.03;;
11924;SDS011;6022;48.768;18.608;2024-03-23T09:21:48;1.03;;;1.00;;
11924;SDS011;6022;48.768;18.608;2024-03-23T09:24:16;1.23;;;1.17;;
11924;SDS011;6022;48.768;18.608;2024-03-23T09:26:53;1.73;;;1.37;;
11924;SDS011;6022;48.768;18.608;2024-03-23T09:29:20;2.40;;;1.50;;
11924;SDS011;6022;48.768;18.608;2024-03-23T09:31:48;1.57;;;1.13;;
11924;SDS011;6022;48.768;18.608;2024-03-23T09:34:15;0.47;;;0.47;;
11924;SDS011;6022;48.768;18.608;2024-03-23T09:36:44;1.43;;;0.90;;
11924;SDS011;6022;48.768;18.608;2024-03-23T09:39:12;1.50;;;1.20;;
11924;SDS011;6022;48.768;18.608;2024-03-23T09:41:40;1.43;;;1.20;;
11924;SDS011;6022;48.768;18.608;2024-03-23T09:44:07;1.00;;;0.90;;
11924;SDS011;6022;48.768;18.608;2024-03-23T09:46:35;1.37;;;1.27;;
11924;SDS011;6022;48.768;18.608;2024-03-23T09:49:05;1.27;;;1.17;;
11924;SDS011;6022;48.768;18.608;2024-03-23T09:51:37;0.77;;;0.77;;
11924;SDS011;6022;48.768;18.608;2024-03-23T09:54:05;1.23;;;1.17;;
11924;SDS011;6022;48.768;18.608;2024-03-23T09:56:32;4.97;;;1.00;;
11924;SDS011;6022;48.768;18.608;2024-03-23T09:59:01;4.07;;;1.23;;
11924;SDS011;6022;48.768;18.608;2024-03-23T10:01:29;0.97;;;0.83;;
11924;SDS011;6022;48.768;18.608;2024-03-23T10:03:56;3.37;;;1.60;;
11924;SDS011;6022;48.768;18.608;2024-03-23T10:06:27;0.67;;;0.67;;
11924;SDS011;6022;48.768;18.608;2024-03-23T10:09:44;1.80;;;1.70;;
11924;SDS011;6022;48.768;18.608;2024-03-23T10:13:05;0.70;;;0.57;;
11924;SDS011;6022;48.768;18.608;2024-03-23T10:15:48;0.87;;;0.87;;
11924;SDS011;6022;48.768;18.608;2024-03-23T10:18:46;1.20;;;1.20;;
11924;SDS011;6022;48.768;18.608;2024-03-23T10:21:15;1.37;;;1.23;;
11924;SDS011;6022;48.768;18.608;2024-03-23T10:23:43;1.60;;;1.20;;
11924;SDS011;6022;48.768;18.608;2024-03-23T10:29:01;1.43;;;1.27;;
11924;SDS011;6022;48.768;18.608;2024-03-23T10:31:34;0.97;;;0.93;;
11924;SDS011;6022;48.768;18.608;2024-03-23T10:34:03;0.97;;;0.97;;
11924;SDS011;6022;48.768;18.608;2024-03-23T10:36:30;2.47;;;1.13;;
11924;SDS011;6022;48.768;18.608;2024-03-23T10:38:56;3.43;;;1.63;;
11924;SDS011;6022;48.768;18.608;2024-03-23T10:41:28;1.10;;;1.00;;
11924;SDS011;6022;48.768;18.608;2024-03-23T10:44:02;1.57;;;1.10;;
11924;SDS011;6022;48.768;18.608;2024-03-23T10:46:35;1.80;;;1.17;;
11924;SDS011;6022;48.768;18.608;2024-03-23T10:49:18;2.60;;;1.37;;
11924;SDS011;6022;48.768;18.608;2024-03-23T10:51:45;1.67;;;1.33;;
11924;SDS011;6022;48.768;18.608;2024-03-23T10:54:12;1.90;;;1.20;;
11924;SDS011;6022;48.768;18.608;2024-03-23T10:56:39;2.47;;;1.40;;
11924;SDS011;6022;48.768;18.608;2024-03-23T10:59:06;1.00;;;0.90;;
11924;SDS011;6022;48.768;18.608;2024-03-23T11:01:34;1.63;;;1.53;;
11924;SDS011;6022;48.768;18.608;2024-03-23T11:04:29;4.20;;;2.03;;
11924;SDS011;6022;48.768;18.608;2024-03-23T11:07:00;0.97;;;0.97;;
11924;SDS011;6022;48.768;18.608;2024-03-23T11:12:24;1.63;;;1.30;;
11924;SDS011;6022;48.768;18.608;2024-03-23T11:15:14;1.23;;;1.00;;
11924;SDS011;6022;48.768;18.608;2024-03-23T11:17:41;1.20;;;1.00;;
11924;SDS011;6022;48.768;18.608;2024-03-23T11:20:35;1.30;;;1.00;;
11924;SDS011;6022;48.768;18.608;2024-03-23T11:23:02;1.67;;;0.83;;
11924;SDS011;6022;48.768;18.608;2024-03-23T11:25:30;0.90;;;0.90;;
11924;SDS011;6022;48.768;18.608;2024-03-23T11:27:57;1.40;;;1.27;;
11924;SDS011;6022;48.768;18.608;2024-03-23T11:30:37;2.10;;;1.30;;
11924;SDS011;6022;48.768;18.608;2024-03-23T11:33:04;1.67;;;1.57;;
11924;SDS011;6022;48.768;18.608;2024-03-23T11:35:37;0.93;;;0.93;;
11924;SDS011;6022;48.768;18.608;2024-03-23T11:40:43;1.63;;;1.10;;
11924;SDS011;6022;48.768;18.608;2024-03-23T11:43:15;2.23;;;1.13;;
11924;SDS011;6022;48.768;18.608;2024-03-23T11:45:45;2.53;;;1.30;;
11924;SDS011;6022;48.768;18.608;2024-03-23T11:48:14;1.63;;;0.77;;
11924;SDS011;6022;48.768;18.608;2024-03-23T11:50:57;1.00;;;1.00;;
11924;SDS011;6022;48.768;18.608;2024-03-23T11:53:24;1.40;;;1.10;;
11924;SDS011;6022;48.768;18.608;2024-03-23T11:55:58;1.17;;;0.93;;
11924;SDS011;6022;48.768;18.608;2024-03-23T11:58:26;0.87;;;0.87;;
11924;SDS011;6022;48.768;18.608;2024-03-23T12:00:57;0.83;;;0.83;;
11924;SDS011;6022;48.768;18.608;2024-03-23T12:03:25;0.83;;;0.83;;
11924;SDS011;6022;48.768;18.608;2024-03-23T12:05:57;0.67;;;0.67;;
11924;SDS011;6022;48.768;18.608;2024-03-23T12:08:34;0.80;;;0.70;;
11924;SDS011;6022;48.768;18.608;2024-03-23T12:13:37;0.63;;;0.40;;
11924;SDS011;6022;48.768;18.608;2024-03-23T12:16:11;0.50;;;0.50;;
11924;SDS011;6022;48.768;18.608;2024-03-23T12:18:42;0.70;;;0.70;;
11924;SDS011;6022;48.768;18.608;2024-03-23T12:21:18;1.50;;;0.93;;
11924;SDS011;6022;48.768;18.608;2024-03-23T12:23:44;0.33;;;0.33;;
11924;SDS011;6022;48.768;18.608;2024-03-23T12:26:12;1.03;;;0.50;;
11924;SDS011;6022;48.768;18.608;2024-03-23T12:28:39;0.63;;;0.63;;
11924;SDS011;6022;48.768;18.608;2024-03-23T12:31:06;2.27;;;0.77;;
11924;SDS011;6022;48.768;18.608;2024-03-23T12:33:33;0.50;;;0.50;;
11924;SDS011;6022;48.768;18.608;2024-03-23T12:36:00;0.87;;;0.87;;
11924;SDS011;6022;48.768;18.608;2024-03-23T12:38:27;0.23;;;0.23;;
11924;SDS011;6022;48.768;18.608;2024-03-23T12:40:55;0.10;;;0.10;;
11924;SDS011;6022;48.768;18.608;2024-03-23T12:43:22;0.57;;;0.57;;
11924;SDS011;6022;48.768;18.608;2024-03-23T12:45:49;1.33;;;0.77;;
11924;SDS011;6022;48.768;18.608;2024-03-23T12:48:17;1.10;;;0.70;;
11924;SDS011;6022;48.768;18.608;2024-03-23T12:50:44;0.57;;;0.57;;
11924;SDS011;6022;48.768;18.608;2024-03-23T12:53:12;0.57;;;0.53;;
11924;SDS011;6022;48.768;18.608;2024-03-23T12:55:39;1.43;;;0.70;;
11924;SDS011;6022;48.768;18.608;2024-03-23T12:58:06;0.47;;;0.47;;
11924;SDS011;6022;48.768;18.608;2024-03-23T13:00:33;0.20;;;0.20;;
11924;SDS011;6022;48.768;18.608;2024-03-23T13:03:00;0.83;;;0.40;;
11924;SDS011;6022;48.768;18.608;2024-03-23T13:05:26;0.30;;;0.30;;
11924;SDS011;6022;48.768;18.608;2024-03-23T13:07:53;0.37;;;0.33;;
11924;SDS011;6022;48.768;18.608;2024-03-23T13:10:20;0.53;;;0.53;;
11924;SDS011;6022;48.768;18.608;2024-03-23T13:12:50;0.60;;;0.60;;
11924;SDS011;6022;48.768;18.608;2024-03-23T13:15:17;0.73;;;0.70;;
11924;SDS011;6022;48.768;18.608;2024-03-23T13:17:46;0.30;;;0.30;;
11924;SDS011;6022;48.768;18.608;2024-03-23T13:20:13;0.70;;;0.67;;
11924;SDS011;6022;48.768;18.608;2024-03-23T13:22:46;1.23;;;0.37;;
11924;SDS011;6022;48.768;18.608;2024-03-23T13:28:44;0.67;;;0.67;;
11924;SDS011;6022;48.768;18.608;2024-03-23T13:31:40;0.23;;;0.23;;
11924;SDS011;6022;48.768;18.608;2024-03-23T13:35:03;1.73;;;0.60;;
11924;SDS011;6022;48.768;18.608;2024-03-23T13:37:36;1.03;;;0.70;;
11924;SDS011;6022;48.768;18.608;2024-03-23T13:40:56;0.90;;;0.63;;
11924;SDS011;6022;48.768;18.608;2024-03-23T13:43:35;0.90;;;0.87;;
11924;SDS011;6022;48.768;18.608;2024-03-23T13:46:14;0.50;;;0.50;;
11924;SDS011;6022;48.768;18.608;2024-03-23T13:49:27;1.53;;;0.40;;
11924;SDS011;6022;48.768;18.608;2024-03-23T13:52:03;1.50;;;1.23;;
11924;SDS011;6022;48.768;18.608;2024-03-23T13:54:30;0.30;;;0.30;;
11924;SDS011;6022;48.768;18.608;2024-03-23T13:56:57;5.23;;;1.17;;
11924;SDS011;6022;48.768;18.608;2024-03-23T13:59:26;0.63;;;0.63;;
11924;SDS011;6022;48.768;18.608;2024-03-23T14:01:54;0.70;;;0.70;;
11924;SDS011;6022;48.768;18.608;2024-03-23T14:04:22;0.80;;;0.80;;
11924;SDS011;6022;48.768;18.608;2024-03-23T14:06:50;0.83;;;0.57;;
11924;SDS011;6022;48.768;18.608;2024-03-23T14:09:18;0.33;;;0.33;;
11924;SDS011;6022;48.768;18.608;2024-03-23T14:37:16;0.30;;;0.30;;
11924;SDS011;6022;48.768;18.608;2024-03-23T14:39:43;1.03;;;0.50;;
11924;SDS011;6022;48.768;18.608;2024-03-23T14:42:10;0.67;;;0.60;;
11924;SDS011;6022;48.768;18.608;2024-03-23T14:44:37;0.30;;;0.30;;
11924;SDS011;6022;48.768;18.608;2024-03-23T14:47:13;0.33;;;0.30;;
11924;SDS011;6022;48.768;18.608;2024-03-23T14:49:41;2.27;;;0.83;;
11924;SDS011;6022;48.768;18.608;2024-03-23T14:52:11;0.70;;;0.60;;
11924;SDS011;6022;48.768;18.608;2024-03-23T14:54:39;1.33;;;1.23;;
11924;SDS011;6022;48.768;18.608;2024-03-23T14:57:10;0.83;;;0.67;;
11924;SDS011;6022;48.768;18.608;2024-03-23T14:59:38;1.23;;;0.80;;
11924;SDS011;6022;48.768;18.608;2024-03-23T15:02:06;1.43;;;0.63;;
11924;SDS011;6022;48.768;18.608;2024-03-23T15:04:36;0.97;;;0.97;;
11924;SDS011;6022;48.768;18.608;2024-03-23T15:07:05;0.77;;;0.77;;
11924;SDS011;6022;48.768;18.608;2024-03-23T15:09:35;1.17;;;1.07;;
11924;SDS011;6022;48.768;18.608;2024-03-23T15:12:03;0.80;;;0.80;;
11924;SDS011;6022;48.768;18.608;2024-03-23T15:14:33;1.43;;;0.63;;
11924;SDS011;6022;48.768;18.608;2024-03-23T15:17:00;0.87;;;0.73;;
11924;SDS011;6022;48.768;18.608;2024-03-23T15:19:30;0.40;;;0.40;;
11924;SDS011;6022;48.768;18.608;2024-03-23T15:21:57;0.20;;;0.20;;
11924;SDS011;6022;48.768;18.608;2024-03-23T15:24:25;0.37;;;0.37;;
11924;SDS011;6022;48.768;18.608;2024-03-23T15:26:52;0.47;;;0.30;;
11924;SDS011;6022;48.768;18.608;2024-03-23T15:29:21;0.37;;;0.33;;
11924;SDS011;6022;48.768;18.608;2024-03-23T15:31:50;0.27;;;0.27;;
11924;SDS011;6022;48.768;18.608;2024-03-23T15:34:18;0.00;;;0.00;;
11924;SDS011;6022;48.768;18.608;2024-03-23T15:36:50;0.37;;;0.37;;
11924;SDS011;6022;48.768;18.608;2024-03-23T15:39:17;0.83;;;0.43;;
11924;SDS011;6022;48.768;18.608;2024-03-23T15:41:47;0.33;;;0.27;;
11924;SDS011;6022;48.768;18.608;2024-03-23T15:44:14;0.10;;;0.10;;
11924;SDS011;6022;48.768;18.608;2024-03-23T15:46:44;0.40;;;0.40;;
11924;SDS011;6022;48.768;18.608;2024-03-23T15:49:10;0.00;;;0.00;;
11924;SDS011;6022;48.768;18.608;2024-03-23T15:51:40;0.00;;;0.00;;
11924;SDS011;6022;48.768;18.608;2024-03-23T15:54:09;0.20;;;0.20;;
11924;SDS011;6022;48.768;18.608;2024-03-23T15:56:37;0.10;;;0.10;;
11924;SDS011;6022;48.768;18.608;2024-03-23T15:59:15;0.00;;;0.00;;
11924;SDS011;6022;48.768;18.608;2024-03-23T16:01:43;0.20;;;0.20;;
11924;SDS011;6022;48.768;18.608;2024-03-23T16:04:10;0.00;;;0.00;;
11924;SDS011;6022;48.768;18.608;2024-03-23T16:06:39;0.00;;;0.00;;
11924;SDS011;6022;48.768;18.608;2024-03-23T16:09:07;0.07;;;0.07;;
11924;SDS011;6022;48.768;18.608;2024-03-23T16:11:42;0.10;;;0.10;;
11924;SDS011;6022;48.768;18.608;2024-03-23T16:14:09;0.00;;;0.00;;
11924;SDS011;6022;48.768;18.608;2024-03-23T16:16:37;0.10;;;0.10;;
11924;SDS011;6022;48.768;18.608;2024-03-23T16:19:03;0.00;;;0.00;;
11924;SDS011;6022;48.768;18.608;2024-03-23T16:21:30;0.00;;;0.00;;
11924;SDS011;6022;48.768;18.608;2024-03-23T16:23:57;0.00;;;0.00;;
11924;SDS011;6022;48.768;18.608;2024-03-23T16:26:24;0.23;;;0.23;;
11924;SDS011;6022;48.768;18.608;2024-03-23T16:28:51;0.03;;;0.03;;
11924;SDS011;6022;48.768;18.608;2024-03-23T16:31:18;0.00;;;0.00;;
11924;SDS011;6022;48.768;18.608;2024-03-23T16:33:45;0.10;;;0.10;;
11924;SDS011;6022;48.768;18.608;2024-03-23T16:36:15;0.10;;;0.10;;
11924;SDS011;6022;48.768;18.608;2024-03-23T16:38:44;0.13;;;0.10;;
11924;SDS011;6022;48.768;18.608;2024-03-23T16:41:13;0.00;;;0.00;;
11924;SDS011;6022;48.768;18.608;2024-03-23T16:43:44;0.00;;;0.00;;
11924;SDS011;6022;48.768;18.608;2024-03-23T16:46:13;0.00;;;0.00;;
11924;SDS011;6022;48.768;18.608;2024-03-23T16:48:44;0.00;;;0.00;;
11924;SDS011;6022;48.768;18.608;2024-03-23T16:51:21;0.00;;;0.00;;
11924;SDS011;6022;48.768;18.608;2024-03-23T16:53:48;0.10;;;0.10;;
11924;SDS011;6022;48.768;18.608;2024-03-23T16:56:15;0.00;;;0.00;;